sensor_id;sensor_type;location;lat;lon;timestamp;temperature;humidity
36856;DHT22;22788;51.434;6.786;2024-01-27T00:01:58;8.20;99.90
36856;DHT22;22788;51.434;6.786;2024-01-27T00:04:24;7.40;99.90
36856;DHT22;22788;51.434;6.786;2024-01-27T00:06:49;7.20;99.90
36856;DHT22;22788;51.434;6.786;2024-01-27T00:09:15;7.30;99.90
36856;DHT22;22788;51.434;6.786;2024-01-27T00:11:40;7.40;99.90
36856;DHT22;22788;51.434;6.786;2024-01-27T00:14:06;7.30;99.90
36856;DHT22;22788;51.434;6.786;2024-01-27T00:16:33;7.30;99.90
36856;DHT22;22788;51.434;6.786;2024-01-27T00:18:59;7.40;99.90
36856;DHT22;22788;51.434;6.786;2024-01-27T00:21:24;7.80;99.90
36856;DHT22;22788;51.434;6.786;2024-01-27T00:23:50;7.30;99.90
36856;DHT22;22788;51.434;6.786;2024-01-27T00:26:15;7.50;99.90
36856;DHT22;22788;51.434;6.786;2024-01-27T00:28:41;7.30;99.90
36856;DHT22;22788;51.434;6.786;2024-01-27T00:31:06;7.40;99.90
36856;DHT22;22788;51.434;6.786;2024-01-27T00:33:33;7.30;99.90
36856;DHT22;22788;51.434;6.786;2024-01-27T00:35:59;7.00;99.90
36856;DHT22;22788;51.434;6.786;2024-01-27T00:38:25;7.20;99.90
36856;DHT22;22788;51.434;6.786;2024-01-27T00:40:50;7.20;99.90
36856;DHT22;22788;51.434;6.786;2024-01-27T00:43:16;7.30;99.90
36856;DHT22;22788;51.434;6.786;2024-01-27T00:45:41;7.20;99.90
36856;DHT22;22788;51.434;6.786;2024-01-27T00:48:07;7.30;99.90
36856;DHT22;22788;51.434;6.786;2024-01-27T00:50:34;7.30;99.90
36856;DHT22;22788;51.434;6.786;2024-01-27T00:52:59;7.30;99.90
36856;DHT22;22788;51.434;6.786;2024-01-27T00:55:25;7.20;99.90
36856;DHT22;22788;51.434;6.786;2024-01-27T00:57:51;6.90;99.90
36856;DHT22;22788;51.434;6.786;2024-01-27T01:00:17;7.20;99.90
36856;DHT22;22788;51.434;6.786;2024-01-27T01:02:42;7.30;99.90
36856;DHT22;22788;51.434;6.786;2024-01-27T01:05:08;6.90;99.90
36856;DHT22;22788;51.434;6.786;2024-01-27T01:07:35;7.10;99.90
36856;DHT22;22788;51.434;6.786;2024-01-27T01:10:01;7.00;99.90
36856;DHT22;22788;51.434;6.786;2024-01-27T01:12:26;7.10;99.90
36856;DHT22;22788;51.434;6.786;2024-01-27T01:14:52;6.30;99.90
36856;DHT22;22788;51.434;6.786;2024-01-27T01:17:18;7.20;99.90
36856;DHT22;22788;51.434;6.786;2024-01-27T01:19:43;7.10;99.90
36856;DHT22;22788;51.434;6.786;2024-01-27T01:22:09;7.10;99.90
36856;DHT22;22788;51.434;6.786;2024-01-27T01:24:36;7.10;99.90
36856;DHT22;22788;51.434;6.786;2024-01-27T01:27:02;7.10;99.90
36856;DHT22;22788;51.434;6.786;2024-01-27T01:29:27;7.10;99.90
36856;DHT22;22788;51.434;6.786;2024-01-27T01:31:53;7.10;99.90
36856;DHT22;22788;51.434;6.786;2024-01-27T01:34:19;7.70;99.90
36856;DHT22;22788;51.434;6.786;2024-01-27T01:36:44;7.10;99.90
36856;DHT22;22788;51.434;6.786;2024-01-27T01:39:11;7.10;99.90
36856;DHT22;22788;51.434;6.786;2024-01-27T01:41:38;7.10;99.90
36856;DHT22;22788;51.434;6.786;2024-01-27T01:44:04;7.00;99.90
36856;DHT22;22788;51.434;6.786;2024-01-27T01:46:29;7.20;99.90
36856;DHT22;22788;51.434;6.786;2024-01-27T01:48:55;7.00;99.90
36856;DHT22;22788;51.434;6.786;2024-01-27T01:51:20;7.10;99.90
36856;DHT22;22788;51.434;6.786;2024-01-27T01:53:48;7.10;99.90
36856;DHT22;22788;51.434;6.786;2024-01-27T01:56:14;7.30;99.90
36856;DHT22;22788;51.434;6.786;2024-01-27T01:58:42;7.20;99.90
36856;DHT22;22788;51.434;6.786;2024-01-27T02:01:07;7.10;99.90
36856;DHT22;22788;51.434;6.786;2024-01-27T02:03:33;7.30;99.90
36856;DHT22;22788;51.434;6.786;2024-01-27T02:05:59;7.00;99.90
36856;DHT22;22788;51.434;6.786;2024-01-27T02:08:24;6.80;99.90
36856;DHT22;22788;51.434;6.786;2024-01-27T02:10:50;7.80;99.90
36856;DHT22;22788;51.434;6.786;2024-01-27T02:13:20;7.00;99.90
36856;DHT22;22788;51.434;6.786;2024-01-27T02:15:48;7.30;99.90
36856;DHT22;22788;51.434;6.786;2024-01-27T02:18:13;7.40;99.90
36856;DHT22;22788;51.434;6.786;2024-01-27T02:20:39;6.90;99.90
36856;DHT22;22788;51.434;6.786;2024-01-27T02:23:05;7.10;99.90
36856;DHT22;22788;51.434;6.786;2024-01-27T02:25:32;7.00;99.90
36856;DHT22;22788;51.434;6.786;2024-01-27T02:27:58;7.10;99.90
36856;DHT22;22788;51.434;6.786;2024-01-27T02:30:24;7.00;99.90
36856;DHT22;22788;51.434;6.786;2024-01-27T02:32:50;7.10;99.90
36856;DHT22;22788;51.434;6.786;2024-01-27T12:28:18;6.30;99.90
36856;DHT22;22788;51.434;6.786;2024-01-27T12:40:32;8.10;99.90
36856;DHT22;22788;51.434;6.786;2024-01-27T12:42:58;6.40;99.90
36856;DHT22;22788;51.434;6.786;2024-01-27T12:45:23;6.10;99.90
36856;DHT22;22788;51.434;6.786;2024-01-27T12:47:49;6.30;99.90
36856;DHT22;22788;51.434;6.786;2024-01-27T12:50:15;6.30;99.90
36856;DHT22;22788;51.434;6.786;2024-01-27T12:52:40;6.40;99.90
36856;DHT22;22788;51.434;6.786;2024-01-27T12:55:07;6.40;99.90
36856;DHT22;22788;51.434;6.786;2024-01-27T12:57:34;6.40;99.90
36856;DHT22;22788;51.434;6.786;2024-01-27T12:59:59;6.40;99.90
36856;DHT22;22788;51.434;6.786;2024-01-27T13:02:25;6.40;99.90
36856;DHT22;22788;51.434;6.786;2024-01-27T13:04:51;6.40;99.90
36856;DHT22;22788;51.434;6.786;2024-01-27T13:07:16;6.40;99.90
36856;DHT22;22788;51.434;6.786;2024-01-27T13:09:42;6.40;99.90
36856;DHT22;22788;51.434;6.786;2024-01-27T13:12:07;6.40;99.90
36856;DHT22;22788;51.434;6.786;2024-01-27T13:14:34;6.40;99.90
36856;DHT22;22788;51.434;6.786;2024-01-27T13:17:00;6.50;99.90
36856;DHT22;22788;51.434;6.786;2024-01-27T13:19:26;6.50;99.90
36856;DHT22;22788;51.434;6.786;2024-01-27T13:21:52;6.40;99.90
36856;DHT22;22788;51.434;6.786;2024-01-27T13:24:18;6.40;99.90
36856;DHT22;22788;51.434;6.786;2024-01-27T13:26:43;6.40;99.90
36856;DHT22;22788;51.434;6.786;2024-01-27T13:29:09;6.40;99.90
36856;DHT22;22788;51.434;6.786;2024-01-27T13:31:36;6.50;99.90
36856;DHT22;22788;51.434;6.786;2024-01-27T13:34:01;6.50;99.90
36856;DHT22;22788;51.434;6.786;2024-01-27T13:36:27;6.60;99.90
36856;DHT22;22788;51.434;6.786;2024-01-27T13:38:53;6.60;99.90
36856;DHT22;22788;51.434;6.786;2024-01-27T13:41:18;6.60;99.90
36856;DHT22;22788;51.434;6.786;2024-01-27T13:43:44;6.50;99.90
36856;DHT22;22788;51.434;6.786;2024-01-27T13:46:10;6.50;99.90
36856;DHT22;22788;51.434;6.786;2024-01-27T13:48:37;6.60;99.90
36856;DHT22;22788;51.434;6.786;2024-01-27T13:51:03;6.70;99.90
36856;DHT22;22788;51.434;6.786;2024-01-27T13:53:29;6.60;99.90
36856;DHT22;22788;51.434;6.786;2024-01-27T13:55:55;6.80;99.90
36856;DHT22;22788;51.434;6.786;2024-01-27T13:58:21;6.70;99.90
36856;DHT22;22788;51.434;6.786;2024-01-27T14:00:46;6.60;99.90
36856;DHT22;22788;51.434;6.786;2024-01-27T14:03:12;6.70;99.90
36856;DHT22;22788;51.434;6.786;2024-01-27T14:05:39;6.60;99.90
36856;DHT22;22788;51.434;6.786;2024-01-27T14:08:05;6.60;99.90
36856;DHT22;22788;51.434;6.786;2024-01-27T14:10:31;6.60;99.90
36856;DHT22;22788;51.434;6.786;2024-01-27T14:12:57;6.60;99.90
36856;DHT22;22788;51.434;6.786;2024-01-27T14:15:23;6.60;99.90
36856;DHT22;22788;51.434;6.786;2024-01-27T14:17:48;6.60;99.90
36856;DHT22;22788;51.434;6.786;2024-01-27T14:20:14;6.60;99.90
36856;DHT22;22788;51.434;6.786;2024-01-27T14:22:41;6.60;99.90
36856;DHT22;22788;51.434;6.786;2024-01-27T14:25:07;6.60;99.90
36856;DHT22;22788;51.434;6.786;2024-01-27T14:27:33;6.50;99.90
36856;DHT22;22788;51.434;6.786;2024-01-27T14:29:58;6.50;99.90
36856;DHT22;22788;51.434;6.786;2024-01-27T14:32:24;6.50;99.90
36856;DHT22;22788;51.434;6.786;2024-01-27T14:34:50;6.50;99.90
36856;DHT22;22788;51.434;6.786;2024-01-27T14:37:15;6.60;99.90
36856;DHT22;22788;51.434;6.786;2024-01-27T14:39:43;6.60;99.90
36856;DHT22;22788;51.434;6.786;2024-01-27T14:42:08;6.50;99.90
36856;DHT22;22788;51.434;6.786;2024-01-27T14:44:34;6.50;99.90
36856;DHT22;22788;51.434;6.786;2024-01-27T14:46:59;6.50;99.90
36856;DHT22;22788;51.434;6.786;2024-01-27T14:49:25;6.50;99.90
36856;DHT22;22788;51.434;6.786;2024-01-27T14:51:50;7.60;99.90
36856;DHT22;22788;51.434;6.786;2024-01-27T14:56:43;6.50;99.90
36856;DHT22;22788;51.434;6.786;2024-01-27T14:59:09;6.50;99.90
36856;DHT22;22788;51.434;6.786;2024-01-27T15:01:35;6.60;99.90
36856;DHT22;22788;51.434;6.786;2024-01-27T15:04:01;6.60;99.90
36856;DHT22;22788;51.434;6.786;2024-01-27T15:06:26;6.60;99.90
36856;DHT22;22788;51.434;6.786;2024-01-27T15:08:52;6.60;99.90
36856;DHT22;22788;51.434;6.786;2024-01-27T15:11:18;6.60;99.90
36856;DHT22;22788;51.434;6.786;2024-01-27T15:13:45;6.60;99.90
36856;DHT22;22788;51.434;6.786;2024-01-27T15:16:10;6.60;99.90
36856;DHT22;22788;51.434;6.786;2024-01-27T15:18:36;6.50;99.90
36856;DHT22;22788;51.434;6.786;2024-01-27T15:21:02;6.60;99.90
36856;DHT22;22788;51.434;6.786;2024-01-27T15:23:28;6.50;99.90
36856;DHT22;22788;51.434;6.786;2024-01-27T15:28:19;6.50;99.90
36856;DHT22;22788;51.434;6.786;2024-01-27T15:30:46;6.50;99.90
36856;DHT22;22788;51.434;6.786;2024-01-27T15:33:12;6.60;99.90
36856;DHT22;22788;51.434;6.786;2024-01-27T15:35:37;6.50;99.90
36856;DHT22;22788;51.434;6.786;2024-01-27T15:38:03;6.60;99.90
36856;DHT22;22788;51.434;6.786;2024-01-27T15:40:29;6.60;99.90
36856;DHT22;22788;51.434;6.786;2024-01-27T15:42:54;6.60;99.90
36856;DHT22;22788;51.434;6.786;2024-01-27T15:45:20;6.60;99.90
36856;DHT22;22788;51.434;6.786;2024-01-27T15:47:47;6.50;99.90
36856;DHT22;22788;51.434;6.786;2024-01-27T15:50:13;6.60;99.90
36856;DHT22;22788;51.434;6.786;2024-01-27T15:52:38;6.50;99.90
36856;DHT22;22788;51.434;6.786;2024-01-27T15:55:04;6.60;99.90
36856;DHT22;22788;51.434;6.786;2024-01-27T15:57:30;6.60;99.90
36856;DHT22;22788;51.434;6.786;2024-01-27T15:59:56;6.60;99.90
36856;DHT22;22788;51.434;6.786;2024-01-27T16:02:21;6.60;99.90
36856;DHT22;22788;51.434;6.786;2024-01-27T16:04:48;6.60;99.90
36856;DHT22;22788;51.434;6.786;2024-01-27T16:07:14;6.60;99.90
36856;DHT22;22788;51.434;6.786;2024-01-27T16:09:45;6.60;99.90
36856;DHT22;22788;51.434;6.786;2024-01-27T16:12:11;6.70;99.90
36856;DHT22;22788;51.434;6.786;2024-01-27T16:14:37;6.60;99.90
36856;DHT22;22788;51.434;6.786;2024-01-27T16:17:03;6.60;99.90
36856;DHT22;22788;51.434;6.786;2024-01-27T16:19:28;6.60;99.90
36856;DHT22;22788;51.434;6.786;2024-01-27T16:21:56;6.70;99.90
36856;DHT22;22788;51.434;6.786;2024-01-27T16:24:21;6.60;99.90
36856;DHT22;22788;51.434;6.786;2024-01-27T16:26:47;6.60;99.90
36856;DHT22;22788;51.434;6.786;2024-01-27T16:29:13;6.60;99.90
36856;DHT22;22788;51.434;6.786;2024-01-27T16:31:38;6.60;99.90
36856;DHT22;22788;51.434;6.786;2024-01-27T16:34:04;6.60;99.90
36856;DHT22;22788;51.434;6.786;2024-01-27T16:36:29;6.50;99.90
36856;DHT22;22788;51.434;6.786;2024-01-27T16:38:56;6.50;99.90
36856;DHT22;22788;51.434;6.786;2024-01-27T16:41:22;6.50;99.90
36856;DHT22;22788;51.434;6.786;2024-01-27T16:43:47;6.50;99.90
36856;DHT22;22788;51.434;6.786;2024-01-27T16:46:13;6.60;99.90
36856;DHT22;22788;51.434;6.786;2024-01-27T16:48:39;6.60;99.90
36856;DHT22;22788;51.434;6.786;2024-01-27T16:51:05;6.60;99.90
36856;DHT22;22788;51.434;6.786;2024-01-27T16:53:31;6.60;99.90
36856;DHT22;22788;51.434;6.786;2024-01-27T16:55:58;6.60;99.90
36856;DHT22;22788;51.434;6.786;2024-01-27T16:58:23;6.70;99.90
36856;DHT22;22788;51.434;6.786;2024-01-27T17:00:49;6.60;99.90
36856;DHT22;22788;51.434;6.786;2024-01-27T17:03:15;6.60;99.90
36856;DHT22;22788;51.434;6.786;2024-01-27T17:05:40;6.60;99.90
36856;DHT22;22788;51.434;6.786;2024-01-27T17:08:06;6.60;99.90
36856;DHT22;22788;51.434;6.786;2024-01-27T17:10:32;6.60;99.90
36856;DHT22;22788;51.434;6.786;2024-01-27T17:12:58;6.50;99.90
36856;DHT22;22788;51.434;6.786;2024-01-27T17:15:24;6.60;99.90
36856;DHT22;22788;51.434;6.786;2024-01-27T17:17:50;6.60;99.90
36856;DHT22;22788;51.434;6.786;2024-01-27T17:20:15;6.60;99.90
36856;DHT22;22788;51.434;6.786;2024-01-27T17:22:41;6.50;99.90
36856;DHT22;22788;51.434;6.786;2024-01-27T17:25:07;6.50;99.90
36856;DHT22;22788;51.434;6.786;2024-01-27T17:27:33;6.50;99.90
36856;DHT22;22788;51.434;6.786;2024-01-27T17:30:00;6.50;99.90
36856;DHT22;22788;51.434;6.786;2024-01-27T17:32:25;6.50;99.90
36856;DHT22;22788;51.434;6.786;2024-01-27T17:34:51;6.50;99.90
36856;DHT22;22788;51.434;6.786;2024-01-27T17:37:16;6.50;99.90
36856;DHT22;22788;51.434;6.786;2024-01-27T17:39:42;6.50;99.90
36856;DHT22;22788;51.434;6.786;2024-01-27T17:42:08;6.60;99.90
36856;DHT22;22788;51.434;6.786;2024-01-27T17:44:33;6.60;99.90
36856;DHT22;22788;51.434;6.786;2024-01-27T17:47:00;6.50;99.90
36856;DHT22;22788;51.434;6.786;2024-01-27T17:49:26;6.50;99.90
36856;DHT22;22788;51.434;6.786;2024-01-27T17:51:51;6.50;99.90
36856;DHT22;22788;51.434;6.786;2024-01-27T17:54:17;6.50;99.90
36856;DHT22;22788;51.434;6.786;2024-01-27T17:56:42;6.50;99.90
36856;DHT22;22788;51.434;6.786;2024-01-27T17:59:08;6.50;99.90
36856;DHT22;22788;51.434;6.786;2024-01-27T18:01:33;6.50;99.90
36856;DHT22;22788;51.434;6.786;2024-01-27T18:04:01;6.50;99.90
36856;DHT22;22788;51.434;6.786;2024-01-27T18:06:26;6.50;99.90
36856;DHT22;22788;51.434;6.786;2024-01-27T18:08:52;6.50;99.90
36856;DHT22;22788;51.434;6.786;2024-01-27T18:11:17;6.50;99.90
36856;DHT22;22788;51.434;6.786;2024-01-27T18:13:43;6.50;99.90
36856;DHT22;22788;51.434;6.786;2024-01-27T18:16:08;6.50;99.90
36856;DHT22;22788;51.434;6.786;2024-01-27T18:18:34;6.50;99.90
36856;DHT22;22788;51.434;6.786;2024-01-27T18:21:01;6.50;99.90
36856;DHT22;22788;51.434;6.786;2024-01-27T18:23:27;6.50;99.90
36856;DHT22;22788;51.434;6.786;2024-01-27T18:25:52;6.50;99.90
36856;DHT22;22788;51.434;6.786;2024-01-27T18:28:18;6.50;99.90
36856;DHT22;22788;51.434;6.786;2024-01-27T18:30:44;6.40;99.90
36856;DHT22;22788;51.434;6.786;2024-01-27T18:33:09;6.50;99.90
36856;DHT22;22788;51.434;6.786;2024-01-27T18:35:35;6.40;99.90
36856;DHT22;22788;51.434;6.786;2024-01-27T18:38:02;6.40;99.90
36856;DHT22;22788;51.434;6.786;2024-01-27T18:40:27;6.40;99.90
36856;DHT22;22788;51.434;6.786;2024-01-27T18:42:53;6.40;99.90
36856;DHT22;22788;51.434;6.786;2024-01-27T18:45:18;6.40;99.90
36856;DHT22;22788;51.434;6.786;2024-01-27T18:47:44;6.40;99.90
36856;DHT22;22788;51.434;6.786;2024-01-27T18:50:10;6.50;99.90
36856;DHT22;22788;51.434;6.786;2024-01-27T18:52:35;6.50;99.90
36856;DHT22;22788;51.434;6.786;2024-01-27T18:55:02;6.50;99.90
36856;DHT22;22788;51.434;6.786;2024-01-27T18:57:28;6.50;99.90
36856;DHT22;22788;51.434;6.786;2024-01-27T18:59:53;6.40;99.90
36856;DHT22;22788;51.434;6.786;2024-01-27T19:02:20;6.40;99.90
36856;DHT22;22788;51.434;6.786;2024-01-27T19:04:46;6.40;99.90
36856;DHT22;22788;51.434;6.786;2024-01-27T19:07:11;6.40;99.90
36856;DHT22;22788;51.434;6.786;2024-01-27T19:09:37;6.40;99.90
36856;DHT22;22788;51.434;6.786;2024-01-27T19:12:04;6.40;99.90
36856;DHT22;22788;51.434;6.786;2024-01-27T19:14:30;6.40;99.90
36856;DHT22;22788;51.434;6.786;2024-01-27T19:16:55;6.40;99.90
36856;DHT22;22788;51.434;6.786;2024-01-27T19:19:21;6.40;99.90
36856;DHT22;22788;51.434;6.786;2024-01-27T19:21:46;6.40;99.90
36856;DHT22;22788;51.434;6.786;2024-01-27T19:24:12;6.40;99.90
36856;DHT22;22788;51.434;6.786;2024-01-27T19:26:38;6.40;99.90
36856;DHT22;22788;51.434;6.786;2024-01-27T19:29:05;6.30;99.90
36856;DHT22;22788;51.434;6.786;2024-01-27T19:31:30;6.40;99.90
36856;DHT22;22788;51.434;6.786;2024-01-27T19:33:56;6.40;99.90
36856;DHT22;22788;51.434;6.786;2024-01-27T19:36:21;6.30;99.90
36856;DHT22;22788;51.434;6.786;2024-01-27T19:38:47;6.30;99.90
36856;DHT22;22788;51.434;6.786;2024-01-27T19:41:12;6.30;99.90
36856;DHT22;22788;51.434;6.786;2024-01-27T19:43:38;6.40;99.90
36856;DHT22;22788;51.434;6.786;2024-01-27T19:46:05;6.30;99.90
36856;DHT22;22788;51.434;6.786;2024-01-27T19:48:31;6.40;99.90
36856;DHT22;22788;51.434;6.786;2024-01-27T19:50:57;6.30;99.90
36856;DHT22;22788;51.434;6.786;2024-01-27T19:53:22;6.30;99.90
36856;DHT22;22788;51.434;6.786;2024-01-27T19:55:48;6.30;99.90
36856;DHT22;22788;51.434;6.786;2024-01-27T19:58:13;6.30;99.90
36856;DHT22;22788;51.434;6.786;2024-01-27T20:00:39;6.30;99.90
36856;DHT22;22788;51.434;6.786;2024-01-27T20:03:06;6.30;99.90
36856;DHT22;22788;51.434;6.786;2024-01-27T20:05:31;6.30;99.90
36856;DHT22;22788;51.434;6.786;2024-01-27T20:07:57;6.30;99.90
36856;DHT22;22788;51.434;6.786;2024-01-27T20:10:23;6.30;99.90
36856;DHT22;22788;51.434;6.786;2024-01-27T20:12:48;6.30;99.90
36856;DHT22;22788;51.434;6.786;2024-01-27T20:15:14;6.30;99.90
36856;DHT22;22788;51.434;6.786;2024-01-27T20:17:39;6.20;99.90
36856;DHT22;22788;51.434;6.786;2024-01-27T20:20:07;6.30;99.90
36856;DHT22;22788;51.434;6.786;2024-01-27T20:22:33;6.30;99.90
36856;DHT22;22788;51.434;6.786;2024-01-27T20:24:58;6.20;99.90
36856;DHT22;22788;51.434;6.786;2024-01-27T20:27:24;6.30;99.90
36856;DHT22;22788;51.434;6.786;2024-01-27T20:29:49;6.30;99.90
36856;DHT22;22788;51.434;6.786;2024-01-27T20:32:15;6.30;99.90
36856;DHT22;22788;51.434;6.786;2024-01-27T20:34:41;6.30;99.90
36856;DHT22;22788;51.434;6.786;2024-01-27T20:37:08;6.20;99.90
36856;DHT22;22788;51.434;6.786;2024-01-27T20:39:33;6.30;99.90
36856;DHT22;22788;51.434;6.786;2024-01-27T20:41:59;6.30;99.90
36856;DHT22;22788;51.434;6.786;2024-01-27T20:44:24;6.20;99.90
36856;DHT22;22788;51.434;6.786;2024-01-27T20:46:50;6.20;99.90
36856;DHT22;22788;51.434;6.786;2024-01-27T20:49:15;6.20;99.90
36856;DHT22;22788;51.434;6.786;2024-01-27T20:51:41;6.20;99.90
36856;DHT22;22788;51.434;6.786;2024-01-27T20:54:08;6.20;99.90
36856;DHT22;22788;51.434;6.786;2024-01-27T20:56:34;6.20;99.90
36856;DHT22;22788;51.434;6.786;2024-01-27T20:58:59;6.20;99.90
36856;DHT22;22788;51.434;6.786;2024-01-27T21:01:25;6.20;99.90
36856;DHT22;22788;51.434;6.786;2024-01-27T21:03:50;6.20;99.90
36856;DHT22;22788;51.434;6.786;2024-01-27T21:06:16;6.20;99.90
36856;DHT22;22788;51.434;6.786;2024-01-27T21:08:42;7.60;99.90
36856;DHT22;22788;51.434;6.786;2024-01-27T21:11:09;7.10;99.90
36856;DHT22;22788;51.434;6.786;2024-01-27T21:13:34;6.10;99.90
36856;DHT22;22788;51.434;6.786;2024-01-27T21:16:00;6.20;99.90
36856;DHT22;22788;51.434;6.786;2024-01-27T21:18:25;6.20;99.90
36856;DHT22;22788;51.434;6.786;2024-01-27T21:20:51;6.20;99.90
36856;DHT22;22788;51.434;6.786;2024-01-27T21:23:17;6.10;99.90
36856;DHT22;22788;51.434;6.786;2024-01-27T21:25:42;6.10;99.90
36856;DHT22;22788;51.434;6.786;2024-01-27T21:28:09;6.00;99.90
36856;DHT22;22788;51.434;6.786;2024-01-27T21:30:35;6.00;99.90
36856;DHT22;22788;51.434;6.786;2024-01-27T21:33:00;5.90;99.90
36856;DHT22;22788;51.434;6.786;2024-01-27T21:35:26;6.00;99.90
36856;DHT22;22788;51.434;6.786;2024-01-27T21:37:52;5.90;99.90
36856;DHT22;22788;51.434;6.786;2024-01-27T21:40:17;6.40;99.90
36856;DHT22;22788;51.434;6.786;2024-01-27T21:42:43;6.10;99.90
36856;DHT22;22788;51.434;6.786;2024-01-27T21:45:10;7.60;99.90
36856;DHT22;22788;51.434;6.786;2024-01-27T21:47:36;6.00;99.90
36856;DHT22;22788;51.434;6.786;2024-01-27T21:50:01;6.00;99.90
36856;DHT22;22788;51.434;6.786;2024-01-27T21:52:27;6.10;99.90
36856;DHT22;22788;51.434;6.786;2024-01-27T21:54:52;6.60;99.90
36856;DHT22;22788;51.434;6.786;2024-01-27T21:57:18;6.00;99.90
36856;DHT22;22788;51.434;6.786;2024-01-27T21:59:43;6.00;99.90
36856;DHT22;22788;51.434;6.786;2024-01-27T22:02:11;6.00;99.90
36856;DHT22;22788;51.434;6.786;2024-01-27T22:04:36;6.00;99.90
36856;DHT22;22788;51.434;6.786;2024-01-27T22:07:02;6.00;99.90
36856;DHT22;22788;51.434;6.786;2024-01-27T22:09:28;6.00;99.90
36856;DHT22;22788;51.434;6.786;2024-01-27T22:11:53;6.00;99.90
36856;DHT22;22788;51.434;6.786;2024-01-27T22:14:19;6.00;99.90
36856;DHT22;22788;51.434;6.786;2024-01-27T22:16:44;6.00;99.90
36856;DHT22;22788;51.434;6.786;2024-01-27T22:19:12;6.00;99.90
36856;DHT22;22788;51.434;6.786;2024-01-27T22:21:37;5.90;99.90
36856;DHT22;22788;51.434;6.786;2024-01-27T22:24:03;5.90;99.90
36856;DHT22;22788;51.434;6.786;2024-01-27T22:26:29;6.00;99.90
36856;DHT22;22788;51.434;6.786;2024-01-27T22:28:54;5.90;99.90
36856;DHT22;22788;51.434;6.786;2024-01-27T22:31:20;5.80;99.90
36856;DHT22;22788;51.434;6.786;2024-01-27T22:36:44;6.80;99.90
36856;DHT22;22788;51.434;6.786;2024-01-27T22:39:12;6.50;99.90
36856;DHT22;22788;51.434;6.786;2024-01-27T22:41:41;5.90;99.90
36856;DHT22;22788;51.434;6.786;2024-01-27T22:44:12;5.80;99.90
36856;DHT22;22788;51.434;6.786;2024-01-27T22:46:38;5.80;99.90
36856;DHT22;22788;51.434;6.786;2024-01-27T22:49:04;5.90;99.90
36856;DHT22;22788;51.434;6.786;2024-01-27T22:51:34;5.90;99.90
36856;DHT22;22788;51.434;6.786;2024-01-27T22:54:02;5.80;99.90
36856;DHT22;22788;51.434;6.786;2024-01-27T22:56:27;5.80;99.90
36856;DHT22;22788;51.434;6.786;2024-01-27T22:59:01;5.80;99.90
36856;DHT22;22788;51.434;6.786;2024-01-27T23:01:35;5.70;99.90
36856;DHT22;22788;51.434;6.786;2024-01-27T23:04:04;6.70;99.90
36856;DHT22;22788;51.434;6.786;2024-01-27T23:06:30;5.70;99.90
36856;DHT22;22788;51.434;6.786;2024-01-27T23:08:55;5.70;99.90
36856;DHT22;22788;51.434;6.786;2024-01-27T23:11:22;5.80;99.90
36856;DHT22;22788;51.434;6.786;2024-01-27T23:13:48;5.80;99.90
36856;DHT22;22788;51.434;6.786;2024-01-27T23:16:16;5.80;99.90
36856;DHT22;22788;51.434;6.786;2024-01-27T23:18:48;5.80;99.90
36856;DHT22;22788;51.434;6.786;2024-01-27T23:21:13;5.70;99.90
36856;DHT22;22788;51.434;6.786;2024-01-27T23:23:39;7.00;99.90
36856;DHT22;22788;51.434;6.786;2024-01-27T23:26:05;5.80;99.90
36856;DHT22;22788;51.434;6.786;2024-01-27T23:28:38;5.80;99.90
36856;DHT22;22788;51.434;6.786;2024-01-27T23:31:04;6.00;99.90
36856;DHT22;22788;51.434;6.786;2024-01-27T23:33:30;5.80;99.90
36856;DHT22;22788;51.434;6.786;2024-01-27T23:35:55;5.80;99.90
36856;DHT22;22788;51.434;6.786;2024-01-27T23:38:21;5.80;99.90
36856;DHT22;22788;51.434;6.786;2024-01-27T23:40:47;5.80;99.90
36856;DHT22;22788;51.434;6.786;2024-01-27T23:43:13;5.80;99.90
36856;DHT22;22788;51.434;6.786;2024-01-27T23:45:40;5.80;99.90
36856;DHT22;22788;51.434;6.786;2024-01-27T23:48:06;5.80;99.90
36856;DHT22;22788;51.434;6.786;2024-01-27T23:50:31;5.80;99.90
36856;DHT22;22788;51.434;6.786;2024-01-27T23:52:57;5.80;99.90
36856;DHT22;22788;51.434;6.786;2024-01-27T23:55:22;5.80;99.90
36856;DHT22;22788;51.434;6.786;2024-01-27T23:57:49;5.80;99.90
